createdAt,value
2023-05-05T00:08:09.115Z,12.64
2023-05-05T00:18:30.568Z,12.59
2023-05-05T00:28:52.302Z,12.52
2023-05-05T00:39:14.094Z,12.36
2023-05-05T00:49:35.914Z,12.29
2023-05-05T00:59:58.769Z,12.18
2023-05-05T01:10:32.944Z,12.16
2023-05-05T01:21:21.082Z,12.13
2023-05-05T01:31:52.027Z,12.05
2023-05-05T01:42:15.013Z,11.98
2023-05-05T01:52:37.576Z,11.93
2023-05-05T02:02:59.878Z,11.84
2023-05-05T02:13:23.133Z,11.79
2023-05-05T02:23:46.268Z,11.70
2023-05-05T02:34:07.980Z,11.62
2023-05-05T02:44:31.770Z,11.50
2023-05-05T02:54:53.415Z,11.41
2023-05-05T03:05:25.222Z,11.29
2023-05-05T03:15:48.434Z,11.19
2023-05-05T03:26:09.786Z,11.11
2023-05-05T03:36:31.904Z,11.03
2023-05-05T03:46:53.363Z,11.00
2023-05-05T03:57:14.731Z,10.94
2023-05-05T04:07:36.108Z,11.00
2023-05-05T04:17:57.671Z,11.08
2023-05-05T04:28:21.614Z,11.07
2023-05-05T04:38:43.467Z,11.10
2023-05-05T04:49:05.853Z,11.06
2023-05-05T04:59:27.258Z,11.05
2023-05-05T05:09:48.663Z,11.10
2023-05-05T05:20:10.486Z,11.22
2023-05-05T05:30:32.858Z,11.46
2023-05-05T05:40:54.538Z,11.69
2023-05-05T05:51:15.971Z,11.80
2023-05-05T06:01:37.364Z,11.88
2023-05-05T06:11:58.721Z,11.97
2023-05-05T06:22:20.104Z,12.03
2023-05-05T06:32:41.515Z,11.98
2023-05-05T06:43:02.905Z,11.86
2023-05-05T06:53:24.315Z,11.57
2023-05-05T07:03:45.769Z,11.37
2023-05-05T07:14:07.156Z,11.22
2023-05-05T07:24:28.584Z,11.19
2023-05-05T07:34:49.915Z,11.43
2023-05-05T07:45:11.280Z,11.53
2023-05-05T07:55:32.655Z,11.46
2023-05-05T08:05:54.503Z,11.52
2023-05-05T08:16:16.056Z,11.63
2023-05-05T08:26:37.528Z,11.61
2023-05-05T08:36:58.948Z,11.76
2023-05-05T08:47:20.497Z,11.95
2023-05-05T08:57:52.420Z,12.18
2023-05-05T09:08:14.167Z,12.40
2023-05-05T09:18:40.973Z,12.79
2023-05-05T09:29:03.247Z,13.23
2023-05-05T09:39:24.623Z,13.55
2023-05-05T09:49:56.317Z,13.89
2023-05-05T10:00:17.837Z,14.26
2023-05-05T10:10:46.434Z,14.66
2023-05-05T10:21:08.456Z,14.92
2023-05-05T10:31:33.597Z,15.22
2023-05-05T10:41:54.981Z,15.63
2023-05-05T10:52:19.348Z,16.05
2023-05-05T11:02:41.871Z,16.39
2023-05-05T11:13:03.398Z,16.74
2023-05-05T11:23:25.586Z,17.16
2023-05-05T11:33:47.039Z,17.66
2023-05-05T11:44:11.581Z,18.01
2023-05-05T11:54:34.409Z,18.28
2023-05-05T12:04:56.578Z,18.38
2023-05-05T12:15:27.437Z,18.62
2023-05-05T12:25:49.102Z,18.59
2023-05-05T12:36:10.691Z,18.64
2023-05-05T12:46:44.141Z,18.65
2023-05-05T12:57:11.747Z,18.64
2023-05-05T13:07:33.120Z,18.73
2023-05-05T13:18:01.557Z,18.92
2023-05-05T13:28:23.137Z,18.92
2023-05-05T13:38:44.490Z,18.89
2023-05-05T13:49:05.876Z,18.92
2023-05-05T13:59:27.507Z,18.90
2023-05-05T14:09:48.877Z,18.78
2023-05-05T14:20:10.557Z,18.78
2023-05-05T14:30:31.938Z,18.66
2023-05-05T14:40:53.293Z,18.54
2023-05-05T14:51:15.928Z,18.47
2023-05-05T15:01:37.475Z,18.35
2023-05-05T15:11:58.833Z,18.20
2023-05-05T15:22:20.334Z,18.18
2023-05-05T15:32:41.972Z,18.15
2023-05-05T15:43:03.442Z,18.06
2023-05-05T15:53:26.670Z,17.74
2023-05-05T16:03:48.076Z,17.43
2023-05-05T16:14:09.505Z,17.27
2023-05-05T16:24:30.953Z,16.92
2023-05-05T16:34:52.332Z,16.64
2023-05-05T16:45:13.719Z,16.15
2023-05-05T16:55:35.134Z,15.71
2023-05-05T17:05:56.562Z,15.19
2023-05-05T17:16:18.110Z,14.85
2023-05-05T17:26:40.463Z,14.81
2023-05-05T17:37:02.069Z,14.82
2023-05-05T17:47:25.384Z,14.70
2023-05-05T17:57:47.399Z,14.63
2023-05-05T18:08:08.795Z,14.57
2023-05-05T18:18:30.217Z,14.63
2023-05-05T18:28:51.839Z,14.67
2023-05-05T18:39:13.908Z,14.77
2023-05-05T18:49:35.260Z,14.74
2023-05-05T18:59:56.749Z,14.73
2023-05-05T19:10:18.695Z,14.60
2023-05-05T19:20:42.838Z,14.59
2023-05-05T19:31:04.204Z,14.62
2023-05-05T19:41:26.210Z,14.70
2023-05-05T19:51:49.806Z,14.79
2023-05-05T20:02:12.158Z,14.82
2023-05-05T20:12:34.147Z,14.78
2023-05-05T20:22:55.574Z,14.74
2023-05-05T20:33:17.024Z,14.70
2023-05-05T20:43:38.952Z,14.66
2023-05-05T20:54:00.716Z,14.65
2023-05-05T21:04:22.080Z,14.63
2023-05-05T21:14:44.576Z,14.53
2023-05-05T21:25:13.177Z,14.47
2023-05-05T21:35:34.629Z,14.35
2023-05-05T21:45:59.657Z,14.33
2023-05-05T21:56:21.021Z,14.30
2023-05-05T22:06:42.391Z,14.21
2023-05-05T22:17:03.793Z,14.21
2023-05-05T22:27:25.325Z,14.11
2023-05-05T22:37:46.770Z,14.06
2023-05-05T22:48:08.161Z,13.98
2023-05-05T22:58:29.562Z,13.93
2023-05-05T23:08:50.920Z,13.79
2023-05-05T23:19:12.527Z,13.69
2023-05-05T23:29:33.948Z,13.60
2023-05-05T23:39:56.137Z,13.53
2023-05-05T23:50:17.529Z,13.52
